Time,TemperatureF,DewpointF,PressureIn,WindDirection,WindDirectionDegrees,WindSpeedMPH,WindSpeedGustMPH,Humidity,HourlyPrecipIn,Conditions,Clouds,dailyrainin,SoftwareType,DateUTC
2013-08-21 00:01:00,66.2,50.0,30.00,ESE,117,1.0,98.0,56,0.00,,,0.00,Weather View 32 v70,2013-08-21 04:01:00,
2013-08-21 00:02:00,66.4,50.0,30.00,NNE,31,1.0,98.0,56,0.00,,,0.00,Weather View 32 v70,2013-08-21 04:02:00,
2013-08-21 00:07:00,65.6,49.2,30.00,North,4,2.0,98.0,56,0.00,,,0.00,Weather View 32 v70,2013-08-21 04:07:00,
2013-08-21 00:12:00,65.6,49.6,30.00,NNE,25,2.0,98.0,56,0.00,,,0.00,Weather View 32 v70,2013-08-21 04:12:00,
2013-08-21 00:17:00,65.6,49.6,30.00,NE,38,1.0,98.0,56,0.00,,,0.00,Weather View 32 v70,2013-08-21 04:17:00,
2013-08-21 00:22:00,65.6,49.5,30.00,NE,44,2.0,98.0,56,0.00,,,0.00,Weather View 32 v70,2013-08-21 04:22:00,
2013-08-21 00:27:00,65.6,49.6,30.00,East,83,1.0,98.0,56,0.00,,,0.00,Weather View 32 v70,2013-08-21 04:27:00,
2013-08-21 00:32:00,65.8,49.6,30.00,East,100,1.0,98.0,56,0.00,,,0.00,Weather View 32 v70,2013-08-21 04:32:00,
2013-08-21 00:37:00,66.2,50.0,30.00,ENE,73,0.0,98.0,56,0.00,,,0.00,Weather View 32 v70,2013-08-21 04:37:00,
2013-08-21 00:42:00,66.0,49.5,29.97,East,89,0.0,98.0,55,0.00,,,0.00,Weather View 32 v70,2013-08-21 04:42:00,
2013-08-21 00:47:00,65.6,49.0,30.00,NNE,12,2.0,98.0,55,0.00,,,0.00,Weather View 32 v70,2013-08-21 04:47:00,
2013-08-21 00:52:00,64.7,48.4,29.97,North,3,2.0,98.0,56,0.00,,,0.00,Weather View 32 v70,2013-08-21 04:52:00,
2013-08-21 00:57:00,64.6,48.8,30.00,North,1,1.0,98.0,57,0.00,,,0.00,Weather View 32 v70,2013-08-21 04:57:00,
2013-08-21 01:02:00,64.6,49.0,29.97,NE,35,2.0,2.0,57,0.00,,,0.00,Weather View 32 v70,2013-08-21 05:02:00,
2013-08-21 01:07:00,64.7,49.1,30.00,NNE,33,1.0,2.0,57,0.00,,,0.00,Weather View 32 v70,2013-08-21 05:07:00,
2013-08-21 01:12:00,64.9,49.2,30.00,NE,55,1.0,2.0,57,0.00,,,0.00,Weather View 32 v70,2013-08-21 05:12:00,
2013-08-21 01:17:00,64.9,48.9,29.97,ENE,78,1.0,2.0,56,0.00,,,0.00,Weather View 32 v70,2013-08-21 05:17:00,
2013-08-21 01:22:00,64.9,48.8,30.00,NE,38,1.0,2.0,56,0.00,,,0.00,Weather View 32 v70,2013-08-21 05:22:00,
2013-08-21 01:27:00,64.9,48.7,29.94,NE,39,1.0,2.0,56,0.00,,,0.00,Weather View 32 v70,2013-08-21 05:27:00,
2013-08-21 01:32:00,64.9,48.5,29.94,ENE,73,1.0,2.0,55,0.00,,,0.00,Weather View 32 v70,2013-08-21 05:32:00,
2013-08-21 01:37:00,65.1,48.6,29.97,ENE,60,0.0,2.0,55,0.00,,,0.00,Weather View 32 v70,2013-08-21 05:37:00,
2013-08-21 01:42:00,64.7,48.3,29.97,NNE,15,1.0,2.0,55,0.00,,,0.00,Weather View 32 v70,2013-08-21 05:42:00,
2013-08-21 01:47:00,64.7,48.3,29.97,NE,48,1.0,2.0,55,0.00,,,0.00,Weather View 32 v70,2013-08-21 05:47:00,
2013-08-21 01:52:00,64.2,47.8,30.00,NNE,12,1.0,2.0,55,0.00,,,0.00,Weather View 32 v70,2013-08-21 05:52:00,
2013-08-21 01:57:00,64.0,48.0,30.00,NE,43,1.0,2.0,56,0.00,,,0.00,Weather View 32 v70,2013-08-21 05:57:00,
2013-08-21 02:02:00,64.2,48.3,30.00,NE,46,1.0,2.0,56,0.00,,,0.00,Weather View 32 v70,2013-08-21 06:02:00,
2013-08-21 02:07:00,64.0,48.2,30.00,NE,50,1.0,2.0,57,0.00,,,0.00,Weather View 32 v70,2013-08-21 06:07:00,
2013-08-21 02:12:00,64.2,48.3,30.00,ESE,113,0.0,2.0,56,0.00,,,0.00,Weather View 32 v70,2013-08-21 06:12:00,
2013-08-21 02:17:00,63.8,47.8,30.00,NNE,16,2.0,2.0,56,0.00,,,0.00,Weather View 32 v70,2013-08-21 06:17:00,
2013-08-21 02:22:00,62.9,47.5,30.00,North,6,2.0,2.0,57,0.00,,,0.00,Weather View 32 v70,2013-08-21 06:22:00,
2013-08-21 02:27:00,63.1,47.9,29.97,NNE,26,2.0,2.0,58,0.00,,,0.00,Weather View 32 v70,2013-08-21 06:27:00,
2013-08-21 02:32:00,63.1,47.8,30.00,NNE,26,1.0,2.0,57,0.00,,,0.00,Weather View 32 v70,2013-08-21 06:32:00,
2013-08-21 02:37:00,63.1,47.7,30.00,NE,34,1.0,2.0,57,0.00,,,0.00,Weather View 32 v70,2013-08-21 06:37:00,
2013-08-21 02:42:00,62.8,47.4,30.00,North,10,1.0,2.0,57,0.00,,,0.00,Weather View 32 v70,2013-08-21 06:42:00,
2013-08-21 02:47:00,62.9,47.8,29.97,North,7,1.0,2.0,58,0.00,,,0.00,Weather View 32 v70,2013-08-21 06:47:00,
2013-08-21 02:52:00,62.8,47.6,30.00,NE,44,2.0,2.0,58,0.00,,,0.00,Weather View 32 v70,2013-08-21 06:52:00,
2013-08-21 02:57:00,62.9,47.8,30.00,NNE,31,1.0,2.0,58,0.00,,,0.00,Weather View 32 v70,2013-08-21 06:57:00,
2013-08-21 03:02:00,63.1,47.7,30.00,ENE,57,1.0,2.0,57,0.00,,,0.00,Weather View 32 v70,2013-08-21 07:02:00,
2013-08-21 03:07:00,62.6,46.9,29.97,NNE,16,1.0,2.0,57,0.00,,,0.00,Weather View 32 v70,2013-08-21 07:07:00,
2013-08-21 03:12:00,62.8,47.2,30.00,NE,39,1.0,2.0,57,0.00,,,0.00,Weather View 32 v70,2013-08-21 07:12:00,
2013-08-21 03:17:00,62.9,47.3,30.00,East,84,0.0,2.0,57,0.00,,,0.00,Weather View 32 v70,2013-08-21 07:17:00,
2013-08-21 03:22:00,63.1,47.3,30.00,ENE,70,0.0,2.0,56,0.00,,,0.00,Weather View 32 v70,2013-08-21 07:22:00,
2013-08-21 03:27:00,63.3,47.4,30.00,NE,36,1.0,2.0,56,0.00,,,0.00,Weather View 32 v70,2013-08-21 07:27:00,
2013-08-21 03:32:00,62.9,46.8,30.00,North,5,1.0,2.0,56,0.00,,,0.00,Weather View 32 v70,2013-08-21 07:32:00,
2013-08-21 03:37:00,62.6,46.7,29.97,North,8,1.0,2.0,56,0.00,,,0.00,Weather View 32 v70,2013-08-21 07:37:00,
2013-08-21 03:42:00,62.2,46.5,30.00,North,8,1.0,2.0,57,0.00,,,0.00,Weather View 32 v70,2013-08-21 07:42:00,
2013-08-21 03:47:00,62.0,46.5,30.00,North,10,1.0,2.0,57,0.00,,,0.00,Weather View 32 v70,2013-08-21 07:47:00,
2013-08-21 03:52:00,62.6,47.1,30.00,ENE,74,1.0,2.0,57,0.00,,,0.00,Weather View 32 v70,2013-08-21 07:52:00,
2013-08-21 03:57:00,62.8,47.0,30.00,NNE,33,1.0,2.0,57,0.00,,,0.00,Weather View 32 v70,2013-08-21 07:57:00,
2013-08-21 04:02:00,62.8,47.0,30.00,East,84,0.0,2.0,56,0.00,,,0.00,Weather View 32 v70,2013-08-21 08:02:00,
2013-08-21 04:07:00,62.6,46.6,30.00,ENE,58,0.0,2.0,56,0.00,,,0.00,Weather View 32 v70,2013-08-21 08:07:00,
2013-08-21 04:12:00,62.4,46.6,30.00,NNE,27,1.0,2.0,56,0.00,,,0.00,Weather View 32 v70,2013-08-21 08:12:00,
2013-08-21 04:17:00,62.6,46.8,30.00,East,80,1.0,2.0,56,0.00,,,0.00,Weather View 32 v70,2013-08-21 08:17:00,
2013-08-21 04:22:00,62.9,47.0,30.03,East,98,1.0,2.0,56,0.00,,,0.00,Weather View 32 v70,2013-08-21 08:22:00,
2013-08-21 04:27:00,63.1,47.0,30.00,ESE,103,0.0,2.0,56,0.00,,,0.00,Weather View 32 v70,2013-08-21 08:27:00,
2013-08-21 04:32:00,63.1,46.8,30.00,ESE,114,1.0,2.0,55,0.00,,,0.00,Weather View 32 v70,2013-08-21 08:32:00,
2013-08-21 04:37:00,63.1,46.4,30.00,ENE,72,0.0,2.0,55,0.00,,,0.00,Weather View 32 v70,2013-08-21 08:37:00,
2013-08-21 04:42:00,63.1,46.2,30.00,North,7,1.0,2.0,54,0.00,,,0.00,Weather View 32 v70,2013-08-21 08:42:00,
2013-08-21 04:47:00,62.8,46.1,30.00,East,85,0.0,2.0,55,0.00,,,0.00,Weather View 32 v70,2013-08-21 08:47:00,
2013-08-21 04:52:00,62.6,46.0,30.00,NNE,25,1.0,2.0,55,0.00,,,0.00,Weather View 32 v70,2013-08-21 08:52:00,
2013-08-21 04:57:00,62.6,46.1,30.03,NE,34,1.0,2.0,55,0.00,,,0.00,Weather View 32 v70,2013-08-21 08:57:00,
2013-08-21 05:02:00,62.0,45.6,30.00,NNE,19,2.0,2.0,55,0.00,,,0.00,Weather View 32 v70,2013-08-21 09:02:00,
2013-08-21 05:07:00,62.0,45.7,30.03,NE,39,2.0,2.0,55,0.00,,,0.00,Weather View 32 v70,2013-08-21 09:07:00,
2013-08-21 05:12:00,61.9,45.6,30.00,NNE,23,1.0,2.0,55,0.00,,,0.00,Weather View 32 v70,2013-08-21 09:12:00,
2013-08-21 05:17:00,61.5,45.4,30.00,NNE,28,1.0,2.0,56,0.00,,,0.00,Weather View 32 v70,2013-08-21 09:17:00,
2013-08-21 05:22:00,61.7,45.8,30.03,NE,54,1.0,2.0,56,0.00,,,0.00,Weather View 32 v70,2013-08-21 09:22:00,
2013-08-21 05:27:00,61.3,45.5,30.03,NE,34,1.0,2.0,56,0.00,,,0.00,Weather View 32 v70,2013-08-21 09:27:00,
2013-08-21 05:32:00,61.5,45.8,30.00,ESE,115,1.0,2.0,56,0.00,,,0.00,Weather View 32 v70,2013-08-21 09:32:00,
2013-08-21 05:37:00,61.9,46.3,30.00,SE,124,1.0,2.0,57,0.00,,,0.00,Weather View 32 v70,2013-08-21 09:37:00,
2013-08-21 05:42:00,61.9,45.7,30.00,NE,41,1.0,2.0,56,0.00,,,0.00,Weather View 32 v70,2013-08-21 09:42:00,
2013-08-21 05:47:00,61.3,45.1,30.03,North,359,1.0,2.0,55,0.00,,,0.00,Weather View 32 v70,2013-08-21 09:47:00,
2013-08-21 05:52:00,61.0,45.1,30.00,North,11,1.0,2.0,56,0.00,,,0.00,Weather View 32 v70,2013-08-21 09:52:00,
2013-08-21 05:57:00,60.8,45.2,30.00,NNE,18,1.0,2.0,57,0.00,,,0.00,Weather View 32 v70,2013-08-21 09:57:00,
2013-08-21 06:02:00,61.0,45.4,30.00,NNE,30,1.0,2.0,57,0.00,,,0.00,Weather View 32 v70,2013-08-21 10:02:00,
2013-08-21 06:07:00,60.8,45.1,30.00,North,8,1.0,2.0,56,0.00,,,0.00,Weather View 32 v70,2013-08-21 10:07:00,
2013-08-21 06:12:00,60.6,45.0,30.00,North,9,1.0,2.0,56,0.00,,,0.00,Weather View 32 v70,2013-08-21 10:12:00,
2013-08-21 06:17:00,61.0,45.4,30.00,NNE,16,1.0,2.0,57,0.00,,,0.00,Weather View 32 v70,2013-08-21 10:17:00,
2013-08-21 06:22:00,60.6,45.2,30.00,NE,38,1.0,2.0,57,0.00,,,0.00,Weather View 32 v70,2013-08-21 10:22:00,
2013-08-21 06:27:00,60.6,45.4,30.00,North,9,1.0,2.0,57,0.00,,,0.00,Weather View 32 v70,2013-08-21 10:27:00,
2013-08-21 06:32:00,60.8,45.7,29.97,North,2,0.0,2.0,58,0.00,,,0.00,Weather View 32 v70,2013-08-21 10:32:00,
2013-08-21 06:37:00,61.3,46.2,30.06,NNE,27,1.0,2.0,58,0.00,,,0.00,Weather View 32 v70,2013-08-21 10:37:00,
2013-08-21 06:42:00,61.9,46.1,30.03,NNE,24,1.0,2.0,56,0.00,,,0.00,Weather View 32 v70,2013-08-21 10:42:00,
2013-08-21 06:47:00,62.4,46.4,30.00,NE,40,1.0,2.0,56,0.00,,,0.00,Weather View 32 v70,2013-08-21 10:47:00,
2013-08-21 06:52:00,62.9,46.4,30.03,ENE,73,0.0,2.0,55,0.00,,,0.00,Weather View 32 v70,2013-08-21 10:52:00,
2013-08-21 06:57:00,63.1,46.0,30.00,NNE,22,1.0,2.0,54,0.00,,,0.00,Weather View 32 v70,2013-08-21 10:57:00,
2013-08-21 07:02:00,63.5,46.1,30.03,NE,49,0.0,2.0,53,0.00,,,0.00,Weather View 32 v70,2013-08-21 11:02:00,
2013-08-21 07:07:00,64.2,46.6,30.03,ENE,69,1.0,2.0,53,0.00,,,0.00,Weather View 32 v70,2013-08-21 11:07:00,
2013-08-21 07:12:00,64.7,46.4,30.03,ENE,67,0.0,2.0,52,0.00,,,0.00,Weather View 32 v70,2013-08-21 11:12:00,
2013-08-21 07:17:00,64.9,46.2,30.03,NE,35,1.0,2.0,51,0.00,,,0.00,Weather View 32 v70,2013-08-21 11:17:00,
2013-08-21 07:22:00,64.9,46.0,30.06,North,6,1.0,2.0,51,0.00,,,0.00,Weather View 32 v70,2013-08-21 11:22:00,
2013-08-21 07:27:00,65.6,46.9,30.03,NNE,14,1.0,2.0,51,0.00,,,0.00,Weather View 32 v70,2013-08-21 11:27:00,
2013-08-21 07:32:00,66.5,46.8,30.03,NNE,19,2.0,2.0,49,0.00,,,0.00,Weather View 32 v70,2013-08-21 11:32:00,
2013-08-21 07:37:00,66.9,46.9,30.03,NE,36,1.0,2.0,49,0.00,,,0.00,Weather View 32 v70,2013-08-21 11:37:00,
2013-08-21 07:42:00,67.6,47.0,30.03,NNE,27,1.0,2.0,48,0.00,,,0.00,Weather View 32 v70,2013-08-21 11:42:00,
2013-08-21 07:47:00,68.2,47.2,30.03,NNE,13,2.0,2.0,47,0.00,,,0.00,Weather View 32 v70,2013-08-21 11:47:00,
2013-08-21 07:52:00,68.2,47.1,30.00,North,1,1.0,2.0,47,0.00,,,0.00,Weather View 32 v70,2013-08-21 11:52:00,
2013-08-21 07:57:00,68.7,47.6,30.03,NNE,13,1.0,2.0,47,0.00,,,0.00,Weather View 32 v70,2013-08-21 11:57:00,
2013-08-21 08:02:00,69.6,48.2,30.03,NNW,344,0.0,2.0,47,0.00,,,0.00,Weather View 32 v70,2013-08-21 12:02:00,
2013-08-21 08:07:00,71.4,49.2,30.00,NE,54,1.0,2.0,46,0.00,,,0.00,Weather View 32 v70,2013-08-21 12:07:00,
2013-08-21 08:12:00,71.8,48.2,30.03,SSE,164,0.0,2.0,43,0.00,,,0.00,Weather View 32 v70,2013-08-21 12:12:00,
2013-08-21 08:17:00,70.9,47.3,30.03,SSE,163,1.0,2.0,43,0.00,,,0.00,Weather View 32 v70,2013-08-21 12:17:00,
2013-08-21 08:22:00,70.9,48.3,30.03,SE,136,1.0,2.0,45,0.00,,,0.00,Weather View 32 v70,2013-08-21 12:22:00,
2013-08-21 08:27:00,70.9,47.6,30.03,South,176,2.0,2.0,44,0.00,,,0.00,Weather View 32 v70,2013-08-21 12:27:00,
2013-08-21 08:32:00,71.0,48.6,30.00,SSE,162,2.0,2.0,45,0.00,,,0.00,Weather View 32 v70,2013-08-21 12:32:00,
2013-08-21 08:37:00,71.8,48.9,30.00,South,188,2.0,2.0,44,0.00,,,0.00,Weather View 32 v70,2013-08-21 12:37:00,
2013-08-21 08:42:00,74.3,50.0,30.00,ESE,107,1.0,2.0,43,0.00,,,0.00,Weather View 32 v70,2013-08-21 12:42:00,
2013-08-21 08:47:00,74.8,49.8,30.03,SE,143,1.0,2.0,42,0.00,,,0.00,Weather View 32 v70,2013-08-21 12:47:00,
2013-08-21 08:52:00,77.9,51.5,30.00,ENE,64,1.0,2.0,40,0.00,,,0.00,Weather View 32 v70,2013-08-21 12:52:00,
2013-08-21 08:57:00,79.5,50.9,30.03,North,3,1.0,2.0,37,0.00,,,0.00,Weather View 32 v70,2013-08-21 12:57:00,
2013-08-21 09:02:00,79.3,50.5,30.03,NNE,19,2.0,2.0,37,0.00,,,0.00,Weather View 32 v70,2013-08-21 13:02:00,
2013-08-21 09:07:00,80.0,50.8,30.03,ENE,68,1.0,2.0,36,0.00,,,0.00,Weather View 32 v70,2013-08-21 13:07:00,
2013-08-21 09:12:00,80.8,50.9,30.03,NE,41,1.0,2.0,36,0.00,,,0.00,Weather View 32 v70,2013-08-21 13:12:00,
2013-08-21 09:17:00,81.1,50.6,30.03,North,0,2.0,2.0,35,0.00,,,0.00,Weather View 32 v70,2013-08-21 13:17:00,
2013-08-21 09:22:00,82.2,51.3,30.06,NE,44,1.0,2.0,34,0.00,,,0.00,Weather View 32 v70,2013-08-21 13:22:00,
2013-08-21 09:27:00,81.7,51.1,30.03,SE,141,0.0,2.0,35,0.00,,,0.00,Weather View 32 v70,2013-08-21 13:27:00,
2013-08-21 09:32:00,83.1,51.7,30.00,SE,127,1.0,2.0,34,0.00,,,0.00,Weather View 32 v70,2013-08-21 13:32:00,
2013-08-21 09:37:00,85.1,52.6,30.00,ESE,113,2.0,2.0,33,0.00,,,0.00,Weather View 32 v70,2013-08-21 13:37:00,
2013-08-21 09:42:00,86.3,53.2,30.00,ENE,77,1.0,2.0,32,0.00,,,0.00,Weather View 32 v70,2013-08-21 13:42:00,
2013-08-21 09:47:00,86.0,50.7,30.03,North,351,1.0,2.0,30,0.00,,,0.00,Weather View 32 v70,2013-08-21 13:47:00,
2013-08-21 09:52:00,86.5,51.9,30.00,ENE,76,1.0,2.0,31,0.00,,,0.00,Weather View 32 v70,2013-08-21 13:52:00,
2013-08-21 09:57:00,88.3,51.8,30.00,ENE,60,1.0,2.0,29,0.00,,,0.00,Weather View 32 v70,2013-08-21 13:57:00,
2013-08-21 10:02:00,87.1,48.6,30.00,NNW,348,2.0,2.0,27,0.00,,,0.00,Weather View 32 v70,2013-08-21 14:02:00,
2013-08-21 10:07:00,88.9,50.1,30.03,ENE,75,0.0,2.0,27,0.00,,,0.00,Weather View 32 v70,2013-08-21 14:07:00,
2013-08-21 10:12:00,87.6,43.6,30.03,North,9,4.0,4.0,22,0.00,,,0.00,Weather View 32 v70,2013-08-21 14:12:00,
2013-08-21 10:17:00,85.3,42.0,30.03,North,359,1.0,5.0,22,0.00,,,0.00,Weather View 32 v70,2013-08-21 14:17:00,
2013-08-21 10:22:00,86.2,44.6,30.00,South,189,0.0,5.0,24,0.00,,,0.00,Weather View 32 v70,2013-08-21 14:22:00,
2013-08-21 10:27:00,85.6,44.1,30.00,SSW,202,1.0,5.0,24,0.00,,,0.00,Weather View 32 v70,2013-08-21 14:27:00,
2013-08-21 10:32:00,85.4,44.2,30.00,South,174,1.0,5.0,24,0.00,,,0.00,Weather View 32 v70,2013-08-21 14:32:00,
2013-08-21 10:37:00,86.3,45.3,30.00,WSW,240,2.0,5.0,24,0.00,,,0.00,Weather View 32 v70,2013-08-21 14:37:00,
2013-08-21 10:42:00,86.3,43.0,30.03,SW,231,4.0,5.0,22,0.00,,,0.00,Weather View 32 v70,2013-08-21 14:42:00,
2013-08-21 10:47:00,87.8,44.7,30.03,NNE,14,0.0,5.0,23,0.00,,,0.00,Weather View 32 v70,2013-08-21 14:47:00,
2013-08-21 10:52:00,86.2,42.5,30.00,North,2,2.0,5.0,22,0.00,,,0.00,Weather View 32 v70,2013-08-21 14:52:00,
2013-08-21 10:57:00,86.7,43.1,30.00,WSW,253,2.0,5.0,22,0.00,,,0.00,Weather View 32 v70,2013-08-21 14:57:00,
2013-08-21 11:02:00,85.3,41.8,30.03,NNW,343,4.0,5.0,22,0.00,,,0.00,Weather View 32 v70,2013-08-21 15:02:00,
2013-08-21 11:07:00,87.2,44.6,29.97,NE,42,0.0,5.0,23,0.00,,,0.00,Weather View 32 v70,2013-08-21 15:07:00,
2013-08-21 11:12:00,87.1,43.5,30.00,NNW,344,1.0,5.0,22,0.00,,,0.00,Weather View 32 v70,2013-08-21 15:12:00,
2013-08-21 11:17:00,88.5,44.8,30.00,ENE,73,0.0,5.0,22,0.00,,,0.00,Weather View 32 v70,2013-08-21 15:17:00,
2013-08-21 11:22:00,86.2,40.5,29.97,NNW,336,4.0,5.0,20,0.00,,,0.00,Weather View 32 v70,2013-08-21 15:22:00,
2013-08-21 11:27:00,86.2,42.7,30.00,NNW,328,1.0,5.0,22,0.00,,,0.00,Weather View 32 v70,2013-08-21 15:27:00,
2013-08-21 11:32:00,88.0,43.9,30.00,East,81,2.0,6.0,22,0.00,,,0.00,Weather View 32 v70,2013-08-21 15:32:00,
2013-08-21 11:37:00,88.3,44.3,30.00,South,190,1.0,6.0,22,0.00,,,0.00,Weather View 32 v70,2013-08-21 15:37:00,
2013-08-21 11:42:00,86.3,38.7,30.03,SSW,207,4.0,6.0,19,0.00,,,0.00,Weather View 32 v70,2013-08-21 15:42:00,
2013-08-21 11:47:00,86.9,43.2,30.00,SSW,195,5.0,7.0,22,0.00,,,0.00,Weather View 32 v70,2013-08-21 15:47:00,
2013-08-21 11:52:00,87.2,43.2,30.00,NNE,14,0.0,7.0,22,0.00,,,0.00,Weather View 32 v70,2013-08-21 15:52:00,
2013-08-21 11:57:00,88.9,43.1,30.00,North,4,2.0,7.0,21,0.00,,,0.00,Weather View 32 v70,2013-08-21 15:57:00,
2013-08-21 12:02:00,86.9,40.3,30.00,NNW,348,6.0,7.0,20,0.00,,,0.00,Weather View 32 v70,2013-08-21 16:02:00,
2013-08-21 12:07:00,87.2,39.7,30.00,SW,219,3.0,9.0,19,0.00,,,0.00,Weather View 32 v70,2013-08-21 16:07:00,
2013-08-21 12:12:00,89.0,41.7,30.00,East,90,0.0,9.0,19,0.00,,,0.00,Weather View 32 v70,2013-08-21 16:12:00,
2013-08-21 12:17:00,91.0,43.4,30.00,NE,39,0.0,9.0,19,0.00,,,0.00,Weather View 32 v70,2013-08-21 16:17:00,
2013-08-21 12:22:00,89.0,41.2,30.00,West,260,2.0,9.0,19,0.00,,,0.00,Weather View 32 v70,2013-08-21 16:22:00,
2013-08-21 12:27:00,88.5,42.7,30.00,NNE,14,0.0,9.0,20,0.00,,,0.00,Weather View 32 v70,2013-08-21 16:27:00,
2013-08-21 12:32:00,89.0,41.0,30.00,WNW,299,1.0,9.0,19,0.00,,,0.00,Weather View 32 v70,2013-08-21 16:32:00,
2013-08-21 12:37:00,89.6,41.5,30.00,West,264,2.0,9.0,19,0.00,,,0.00,Weather View 32 v70,2013-08-21 16:37:00,
2013-08-21 12:42:00,88.9,44.4,30.00,WNW,297,1.0,9.0,22,0.00,,,0.00,Weather View 32 v70,2013-08-21 16:42:00,
2013-08-21 12:47:00,88.9,41.6,30.00,NNE,17,1.0,9.0,19,0.00,,,0.00,Weather View 32 v70,2013-08-21 16:47:00,
2013-08-21 12:52:00,88.7,40.5,30.00,NW,316,2.0,9.0,19,0.00,,,0.00,Weather View 32 v70,2013-08-21 16:52:00,
2013-08-21 12:57:00,89.8,41.5,29.97,West,266,1.0,9.0,19,0.00,,,0.00,Weather View 32 v70,2013-08-21 16:57:00,
2013-08-21 13:02:00,87.6,38.0,30.00,SSW,204,3.0,9.0,18,0.00,,,0.00,Weather View 32 v70,2013-08-21 17:02:00,
2013-08-21 13:07:00,90.5,45.0,30.00,North,7,2.0,7.0,21,0.00,,,0.00,Weather View 32 v70,2013-08-21 17:07:00,
2013-08-21 13:12:00,89.6,37.9,30.03,WSW,249,1.0,7.0,16,0.00,,,0.00,Weather View 32 v70,2013-08-21 17:12:00,
2013-08-21 13:17:00,91.0,37.0,30.00,North,1,1.0,7.0,15,0.00,,,0.00,Weather View 32 v70,2013-08-21 17:17:00,
2013-08-21 13:22:00,89.9,39.0,30.03,SW,236,1.0,7.0,17,0.00,,,0.00,Weather View 32 v70,2013-08-21 17:22:00,
2013-08-21 13:27:00,89.9,37.9,30.00,South,176,1.0,7.0,16,0.00,,,0.00,Weather View 32 v70,2013-08-21 17:27:00,
2013-08-21 13:32:00,88.0,36.0,29.97,WSW,248,3.0,7.0,16,0.00,,,0.00,Weather View 32 v70,2013-08-21 17:32:00,
2013-08-21 13:37:00,90.7,42.5,30.00,NW,307,1.0,7.0,19,0.00,,,0.00,Weather View 32 v70,2013-08-21 17:37:00,
2013-08-21 13:42:00,89.8,38.4,30.00,WNW,286,3.0,7.0,17,0.00,,,0.00,Weather View 32 v70,2013-08-21 17:42:00,
2013-08-21 13:47:00,92.3,40.4,30.00,SSE,152,1.0,7.0,17,0.00,,,0.00,Weather View 32 v70,2013-08-21 17:47:00,
2013-08-21 13:52:00,92.6,37.9,29.97,SW,231,2.0,7.0,15,0.00,,,0.00,Weather View 32 v70,2013-08-21 17:52:00,
2013-08-21 13:57:00,92.1,40.6,29.97,East,89,1.0,7.0,17,0.00,,,0.00,Weather View 32 v70,2013-08-21 17:57:00,
2013-08-21 14:02:00,88.9,35.9,29.97,West,274,2.0,7.0,16,0.00,,,0.00,Weather View 32 v70,2013-08-21 18:02:00,
2013-08-21 14:07:00,93.2,38.7,29.97,NNE,16,1.0,7.0,15,0.00,,,0.00,Weather View 32 v70,2013-08-21 18:07:00,
2013-08-21 14:12:00,89.4,35.9,29.97,NW,326,1.0,7.0,15,0.00,,,0.00,Weather View 32 v70,2013-08-21 18:12:00,
2013-08-21 14:17:00,90.8,38.3,30.00,SSW,208,0.0,7.0,16,0.00,,,0.00,Weather View 32 v70,2013-08-21 18:17:00,
2013-08-21 14:22:00,90.1,37.3,30.00,NNW,348,4.0,6.0,16,0.00,,,0.00,Weather View 32 v70,2013-08-21 18:22:00,
2013-08-21 14:27:00,90.7,35.5,29.97,WNW,288,1.0,6.0,14,0.00,,,0.00,Weather View 32 v70,2013-08-21 18:27:00,
2013-08-21 14:32:00,91.6,40.1,29.97,NNW,331,1.0,6.0,17,0.00,,,0.00,Weather View 32 v70,2013-08-21 18:32:00,
2013-08-21 14:37:00,91.2,40.3,29.97,NW,320,2.0,6.0,17,0.00,,,0.00,Weather View 32 v70,2013-08-21 18:37:00,
2013-08-21 14:42:00,92.8,41.8,29.97,East,94,1.0,6.0,17,0.00,,,0.00,Weather View 32 v70,2013-08-21 18:42:00,
2013-08-21 14:47:00,90.1,37.4,29.97,WSW,251,1.0,6.0,16,0.00,,,0.00,Weather View 32 v70,2013-08-21 18:47:00,
2013-08-21 14:52:00,91.7,41.0,29.97,SW,224,1.0,6.0,17,0.00,,,0.00,Weather View 32 v70,2013-08-21 18:52:00,
2013-08-21 14:57:00,93.4,39.5,29.97,NE,41,2.0,6.0,16,0.00,,,0.00,Weather View 32 v70,2013-08-21 18:57:00,
2013-08-21 15:02:00,91.7,37.7,29.97,SW,214,3.0,6.0,15,0.00,,,0.00,Weather View 32 v70,2013-08-21 19:02:00,
2013-08-21 15:07:00,91.2,40.0,29.97,SW,218,1.0,5.0,17,0.00,,,0.00,Weather View 32 v70,2013-08-21 19:07:00,
2013-08-21 15:12:00,91.7,37.2,30.00,SW,223,2.0,5.0,15,0.00,,,0.00,Weather View 32 v70,2013-08-21 19:12:00,
2013-08-21 15:17:00,93.2,38.9,29.97,ENE,77,2.0,5.0,15,0.00,,,0.00,Weather View 32 v70,2013-08-21 19:17:00,
2013-08-21 15:22:00,93.5,39.8,29.97,ESE,106,0.0,5.0,16,0.00,,,0.00,Weather View 32 v70,2013-08-21 19:22:00,
2013-08-21 15:27:00,91.2,38.1,29.97,WNW,301,1.0,5.0,16,0.00,,,0.00,Weather View 32 v70,2013-08-21 19:27:00,
2013-08-21 15:32:00,90.7,41.3,29.97,North,11,0.0,5.0,18,0.00,,,0.00,Weather View 32 v70,2013-08-21 19:32:00,
2013-08-21 15:37:00,92.8,40.1,29.97,West,265,3.0,5.0,16,0.00,,,0.00,Weather View 32 v70,2013-08-21 19:37:00,
2013-08-21 15:42:00,91.0,38.9,29.97,South,191,3.0,5.0,16,0.00,,,0.00,Weather View 32 v70,2013-08-21 19:42:00,
2013-08-21 15:47:00,91.9,40.7,29.94,NE,40,1.0,5.0,17,0.00,,,0.00,Weather View 32 v70,2013-08-21 19:47:00,
2013-08-21 15:52:00,87.8,47.0,29.94,SW,217,1.0,9.0,25,0.00,,,0.00,Weather View 32 v70,2013-08-21 19:52:00,
2013-08-21 15:57:00,86.7,45.0,29.94,West,268,6.0,9.0,24,0.00,,,0.00,Weather View 32 v70,2013-08-21 19:57:00,
2013-08-21 16:02:00,87.8,48.5,29.94,SSW,193,4.0,9.0,26,0.00,,,0.00,Weather View 32 v70,2013-08-21 20:02:00,
2013-08-21 16:07:00,87.1,50.4,29.94,SW,234,5.0,9.0,29,0.00,,,0.00,Weather View 32 v70,2013-08-21 20:07:00,
2013-08-21 16:12:00,84.9,47.7,29.94,SW,217,8.0,9.0,28,0.00,,,0.00,Weather View 32 v70,2013-08-21 20:12:00,
2013-08-21 16:17:00,86.3,50.0,29.91,South,171,1.0,9.0,29,0.00,,,0.00,Weather View 32 v70,2013-08-21 20:17:00,
2013-08-21 16:22:00,30.0,-59.6,0.00,North,0,0.0,9.0,1,0.00,,,0.00,Weather View 32 v70,2013-08-21 20:22:00,
2013-08-21 16:27:00,84.2,49.5,29.94,SSW,194,4.0,9.0,30,0.00,,,0.00,Weather View 32 v70,2013-08-21 20:27:00,
2013-08-21 16:32:00,85.4,50.2,29.94,West,259,3.0,9.0,30,0.00,,,0.00,Weather View 32 v70,2013-08-21 20:32:00,
2013-08-21 16:37:00,86.2,51.3,29.94,West,268,1.0,9.0,30,0.00,,,0.00,Weather View 32 v70,2013-08-21 20:37:00,
2013-08-21 16:42:00,84.7,49.6,29.97,WSW,239,6.0,9.0,30,0.00,,,0.00,Weather View 32 v70,2013-08-21 20:42:00,
2013-08-21 16:47:00,85.3,49.9,29.94,SW,227,5.0,9.0,30,0.00,,,0.00,Weather View 32 v70,2013-08-21 20:47:00,
2013-08-21 16:52:00,84.5,49.3,29.94,SW,220,5.0,9.0,30,0.00,,,0.00,Weather View 32 v70,2013-08-21 20:52:00,
2013-08-21 16:57:00,83.8,49.2,29.94,SW,215,6.0,9.0,30,0.00,,,0.00,Weather View 32 v70,2013-08-21 20:57:00,
2013-08-21 17:02:00,84.7,50.1,29.94,West,268,4.0,9.0,30,0.00,,,0.00,Weather View 32 v70,2013-08-21 21:02:00,
2013-08-21 17:07:00,84.4,48.5,29.94,West,262,5.0,9.0,29,0.00,,,0.00,Weather View 32 v70,2013-08-21 21:07:00,
2013-08-21 17:12:00,83.8,49.9,29.94,WSW,243,3.0,9.0,31,0.00,,,0.00,Weather View 32 v70,2013-08-21 21:12:00,
2013-08-21 17:17:00,84.9,48.0,29.94,SW,219,4.0,9.0,28,0.00,,,0.00,Weather View 32 v70,2013-08-21 21:17:00,
2013-08-21 17:22:00,86.2,49.2,29.94,SW,229,3.0,9.0,28,0.00,,,0.00,Weather View 32 v70,2013-08-21 21:22:00,
2013-08-21 17:27:00,85.1,49.0,29.94,WSW,237,2.0,9.0,29,0.00,,,0.00,Weather View 32 v70,2013-08-21 21:27:00,
2013-08-21 17:32:00,83.6,47.2,29.94,West,260,6.0,9.0,28,0.00,,,0.00,Weather View 32 v70,2013-08-21 21:32:00,
2013-08-21 17:37:00,85.1,48.8,29.97,SW,224,2.0,9.0,29,0.00,,,0.00,Weather View 32 v70,2013-08-21 21:37:00,
2013-08-21 17:42:00,83.6,47.5,29.94,SSW,201,4.0,8.0,29,0.00,,,0.00,Weather View 32 v70,2013-08-21 21:42:00,
2013-08-21 17:47:00,83.8,49.0,29.94,SW,217,2.0,8.0,30,0.00,,,0.00,Weather View 32 v70,2013-08-21 21:47:00,
2013-08-21 17:52:00,85.4,49.0,29.94,SSW,209,1.0,7.0,29,0.00,,,0.00,Weather View 32 v70,2013-08-21 21:52:00,
2013-08-21 17:57:00,84.2,46.4,29.94,SW,231,4.0,7.0,27,0.00,,,0.00,Weather View 32 v70,2013-08-21 21:57:00,
2013-08-21 18:02:00,83.1,45.5,29.94,WSW,252,6.0,7.0,27,0.00,,,0.00,Weather View 32 v70,2013-08-21 22:02:00,
2013-08-21 18:07:00,83.1,47.5,29.94,SSW,211,2.0,8.0,29,0.00,,,0.00,Weather View 32 v70,2013-08-21 22:07:00,
2013-08-21 18:12:00,82.0,45.9,29.94,SW,216,5.0,8.0,28,0.00,,,0.00,Weather View 32 v70,2013-08-21 22:12:00,
2013-08-21 18:17:00,82.0,47.0,29.94,SW,235,1.0,8.0,30,0.00,,,0.00,Weather View 32 v70,2013-08-21 22:17:00,
2013-08-21 18:22:00,82.9,47.3,29.94,West,262,1.0,8.0,29,0.00,,,0.00,Weather View 32 v70,2013-08-21 22:22:00,
2013-08-21 18:27:00,81.5,46.7,29.94,SW,221,3.0,8.0,30,0.00,,,0.00,Weather View 32 v70,2013-08-21 22:27:00,
2013-08-21 18:32:00,81.1,47.0,29.94,WSW,237,4.0,8.0,30,0.00,,,0.00,Weather View 32 v70,2013-08-21 22:32:00,
2013-08-21 18:37:00,80.6,47.7,29.94,SSW,196,2.0,8.0,32,0.00,,,0.00,Weather View 32 v70,2013-08-21 22:37:00,
2013-08-21 18:42:00,80.2,48.3,29.94,WSW,239,2.0,8.0,33,0.00,,,0.00,Weather View 32 v70,2013-08-21 22:42:00,
2013-08-21 18:47:00,80.2,47.8,29.94,SW,234,2.0,8.0,32,0.00,,,0.00,Weather View 32 v70,2013-08-21 22:47:00,
2013-08-21 18:52:00,79.3,48.4,29.94,SW,231,3.0,8.0,34,0.00,,,0.00,Weather View 32 v70,2013-08-21 22:52:00,
2013-08-21 18:57:00,79.1,48.1,29.94,WSW,250,1.0,8.0,34,0.00,,,0.00,Weather View 32 v70,2013-08-21 22:57:00,
2013-08-21 19:02:00,78.8,47.6,29.94,SW,234,2.0,8.0,34,0.00,,,0.00,Weather View 32 v70,2013-08-21 23:02:00,
2013-08-21 19:07:00,78.2,48.0,29.94,SSW,196,3.0,6.0,35,0.00,,,0.00,Weather View 32 v70,2013-08-21 23:07:00,
2013-08-21 19:12:00,78.2,48.0,29.94,SW,228,4.0,6.0,35,0.00,,,0.00,Weather View 32 v70,2013-08-21 23:12:00,
2013-08-21 19:17:00,78.2,48.4,29.91,SSW,192,2.0,6.0,35,0.00,,,0.00,Weather View 32 v70,2013-08-21 23:17:00,
2013-08-21 19:22:00,78.4,48.2,29.94,SSW,199,0.0,6.0,35,0.00,,,0.00,Weather View 32 v70,2013-08-21 23:22:00,
2013-08-21 19:27:00,78.2,48.3,29.94,North,4,1.0,6.0,35,0.00,,,0.00,Weather View 32 v70,2013-08-21 23:27:00,
2013-08-21 19:32:00,77.3,47.9,29.97,NNW,344,2.0,6.0,36,0.00,,,0.00,Weather View 32 v70,2013-08-21 23:32:00,
2013-08-21 19:37:00,76.8,48.0,29.97,NNW,343,1.0,6.0,36,0.00,,,0.00,Weather View 32 v70,2013-08-21 23:37:00,
2013-08-21 19:42:00,76.6,48.2,29.94,North,6,1.0,5.0,37,0.00,,,0.00,Weather View 32 v70,2013-08-21 23:42:00,
2013-08-21 19:47:00,76.4,48.3,29.94,NNW,343,1.0,5.0,37,0.00,,,0.00,Weather View 32 v70,2013-08-21 23:47:00,
2013-08-21 19:52:00,76.4,48.3,29.94,North,6,1.0,4.0,37,0.00,,,0.00,Weather View 32 v70,2013-08-21 23:52:00,
2013-08-21 19:57:00,76.4,48.6,29.94,NNE,13,1.0,4.0,38,0.00,,,0.00,Weather View 32 v70,2013-08-21 23:57:00,
2013-08-21 20:02:00,75.9,48.8,29.94,NE,39,2.0,4.0,39,0.00,,,0.00,Weather View 32 v70,2013-08-22 00:02:00,
2013-08-21 20:07:00,75.9,48.7,29.94,East,101,2.0,4.0,39,0.00,,,0.00,Weather View 32 v70,2013-08-22 00:07:00,
2013-08-21 20:12:00,75.7,49.2,29.94,ESE,117,2.0,4.0,39,0.00,,,0.00,Weather View 32 v70,2013-08-22 00:12:00,
2013-08-21 20:17:00,74.8,49.5,29.94,SE,139,2.0,3.0,41,0.00,,,0.00,Weather View 32 v70,2013-08-22 00:17:00,
2013-08-21 20:22:00,74.8,50.2,29.94,North,5,1.0,3.0,42,0.00,,,0.00,Weather View 32 v70,2013-08-22 00:22:00,
2013-08-21 20:27:00,74.5,49.6,29.94,NE,43,1.0,3.0,42,0.00,,,0.00,Weather View 32 v70,2013-08-22 00:27:00,
2013-08-21 20:32:00,74.1,49.2,29.91,North,2,0.0,3.0,42,0.00,,,0.00,Weather View 32 v70,2013-08-22 00:32:00,
2013-08-21 20:37:00,73.6,48.9,29.94,SSW,196,1.0,3.0,42,0.00,,,0.00,Weather View 32 v70,2013-08-22 00:37:00,
2013-08-21 20:42:00,73.6,48.9,29.94,SSE,157,1.0,5.0,42,0.00,,,0.00,Weather View 32 v70,2013-08-22 00:42:00,
2013-08-21 20:47:00,73.6,49.7,29.94,NE,53,0.0,5.0,43,0.00,,,0.00,Weather View 32 v70,2013-08-22 00:47:00,
2013-08-21 20:52:00,73.2,49.9,29.94,ENE,57,1.0,5.0,44,0.00,,,0.00,Weather View 32 v70,2013-08-22 00:52:00,
2013-08-21 20:57:00,72.5,49.5,29.94,NNW,344,1.0,5.0,44,0.00,,,0.00,Weather View 32 v70,2013-08-22 00:57:00,
2013-08-21 21:02:00,72.7,49.6,29.94,East,100,1.0,5.0,44,0.00,,,0.00,Weather View 32 v70,2013-08-22 01:02:00,
2013-08-21 21:07:00,72.8,49.6,29.94,East,84,1.0,5.0,44,0.00,,,0.00,Weather View 32 v70,2013-08-22 01:07:00,
2013-08-21 21:12:00,72.8,49.8,29.94,ENE,72,0.0,5.0,44,0.00,,,0.00,Weather View 32 v70,2013-08-22 01:12:00,
2013-08-21 21:17:00,73.0,49.6,29.94,NNW,343,0.0,5.0,44,0.00,,,0.00,Weather View 32 v70,2013-08-22 01:17:00,
2013-08-21 21:22:00,73.2,49.4,29.94,SSE,153,1.0,5.0,43,0.00,,,0.00,Weather View 32 v70,2013-08-22 01:22:00,
2013-08-21 21:27:00,73.2,49.0,29.94,SW,222,1.0,5.0,43,0.00,,,0.00,Weather View 32 v70,2013-08-22 01:27:00,
2013-08-21 21:32:00,73.4,48.8,29.94,SSE,163,0.0,5.0,42,0.00,,,0.00,Weather View 32 v70,2013-08-22 01:32:00,
2013-08-21 21:37:00,73.6,48.9,29.94,NE,54,1.0,5.0,42,0.00,,,0.00,Weather View 32 v70,2013-08-22 01:37:00,
2013-08-21 21:42:00,73.6,49.3,29.94,ENE,68,0.0,4.0,43,0.00,,,0.00,Weather View 32 v70,2013-08-22 01:42:00,
2013-08-21 21:47:00,73.6,49.4,29.94,ENE,73,0.0,4.0,43,0.00,,,0.00,Weather View 32 v70,2013-08-22 01:47:00,
2013-08-21 21:52:00,72.8,49.3,29.94,SW,217,2.0,4.0,44,0.00,,,0.00,Weather View 32 v70,2013-08-22 01:52:00,
2013-08-21 21:57:00,72.7,49.4,29.94,South,185,1.0,4.0,44,0.00,,,0.00,Weather View 32 v70,2013-08-22 01:57:00,
2013-08-21 22:02:00,73.2,50.0,29.94,ENE,62,1.0,4.0,44,0.00,,,0.00,Weather View 32 v70,2013-08-22 02:02:00,
2013-08-21 22:07:00,73.2,49.5,29.94,NNE,25,1.0,4.0,43,0.00,,,0.00,Weather View 32 v70,2013-08-22 02:07:00,
2013-08-21 22:12:00,73.4,49.7,29.97,SE,124,2.0,4.0,43,0.00,,,0.00,Weather View 32 v70,2013-08-22 02:12:00,
2013-08-21 22:17:00,73.2,49.6,29.94,East,101,2.0,4.0,44,0.00,,,0.00,Weather View 32 v70,2013-08-22 02:17:00,
2013-08-21 22:22:00,73.0,49.9,29.94,East,101,2.0,4.0,44,0.00,,,0.00,Weather View 32 v70,2013-08-22 02:22:00,
2013-08-21 22:27:00,72.7,49.9,29.94,ESE,114,1.0,4.0,45,0.00,,,0.00,Weather View 32 v70,2013-08-22 02:27:00,
2013-08-21 22:32:00,72.7,49.9,29.94,ESE,105,2.0,4.0,45,0.00,,,0.00,Weather View 32 v70,2013-08-22 02:32:00,
2013-08-21 22:37:00,72.5,50.2,29.94,SE,146,3.0,5.0,46,0.00,,,0.00,Weather View 32 v70,2013-08-22 02:37:00,
2013-08-21 22:42:00,72.3,50.2,29.97,SE,124,2.0,5.0,46,0.00,,,0.00,Weather View 32 v70,2013-08-22 02:42:00,
2013-08-21 22:47:00,72.1,50.8,29.94,East,98,2.0,5.0,47,0.00,,,0.00,Weather View 32 v70,2013-08-22 02:47:00,
2013-08-21 22:52:00,71.4,50.3,29.94,SE,139,3.0,5.0,47,0.00,,,0.00,Weather View 32 v70,2013-08-22 02:52:00,
2013-08-21 22:57:00,71.8,50.9,29.94,East,94,2.0,5.0,48,0.00,,,0.00,Weather View 32 v70,2013-08-22 02:57:00,
2013-08-21 23:02:00,71.6,51.2,29.94,ESE,103,2.0,5.0,49,0.00,,,0.00,Weather View 32 v70,2013-08-22 03:02:00,
2013-08-21 23:07:00,71.4,51.3,29.94,SE,135,3.0,5.0,49,0.00,,,0.00,Weather View 32 v70,2013-08-22 03:07:00,
2013-08-21 23:12:00,71.4,51.4,29.94,ESE,121,2.0,5.0,49,0.00,,,0.00,Weather View 32 v70,2013-08-22 03:12:00,
2013-08-21 23:17:00,71.2,51.4,29.94,ESE,111,2.0,5.0,50,0.00,,,0.00,Weather View 32 v70,2013-08-22 03:17:00,
2013-08-21 23:22:00,70.9,51.6,29.94,East,89,2.0,5.0,51,0.00,,,0.00,Weather View 32 v70,2013-08-22 03:22:00,
2013-08-21 23:27:00,71.0,51.8,29.91,SE,130,2.0,5.0,51,0.00,,,0.00,Weather View 32 v70,2013-08-22 03:27:00,
2013-08-21 23:32:00,70.9,52.1,29.91,ESE,120,3.0,5.0,52,0.00,,,0.00,Weather View 32 v70,2013-08-22 03:32:00,
2013-08-21 23:37:00,71.0,51.8,29.94,ESE,104,2.0,4.0,51,0.00,,,0.00,Weather View 32 v70,2013-08-22 03:37:00,
2013-08-21 23:42:00,71.2,52.1,29.94,SE,127,2.0,4.0,51,0.00,,,0.00,Weather View 32 v70,2013-08-22 03:42:00,
2013-08-21 23:47:00,71.2,52.4,29.91,SE,143,1.0,4.0,52,0.00,,,0.00,Weather View 32 v70,2013-08-22 03:47:00,
2013-08-21 23:52:00,71.0,52.4,29.94,ESE,115,1.0,4.0,52,0.00,,,0.00,Weather View 32 v70,2013-08-22 03:52:00,
2013-08-21 23:57:00,70.9,52.8,29.91,SW,228,1.0,4.0,53,0.00,,,0.00,Weather View 32 v70,2013-08-22 03:57:00,